Airport Name : Rabil

Other Name : Rabil

ICAO : GVBA

IATA : BVC

FAA :

Latitude : 16.136531

Longitude : -22.888897

Country : Cape Verde

Local Date and Time : 12/13/2017 7:25:00 PM

 

TAF (Terminal Aerodrome Forecast)

 

METAR (METeorological Aerodrome Report)

GVBA 131900Z 06014KT 9999 BKN015 24/16 Q1015 NOSIG

GVBA 131800Z 06013KT 9999 BKN015 25/16 Q1015 NOSIG

GVBA 131700Z 06013KT 9999 BKN015 25/16 Q1014 NOSIG